Time;durP1;ratioP1;P1;durP2;ratioP2;P2;SDS_P1;SDS_P2;PMS_P1;PMS_P2;Temp;Humidity;BMP_temperature;BMP_pressure;BME280_temperature;BME280_humidity;BME280_pressure;Samples;Min_cycle;Max_cycle;Signal;HPM_P1;HPM_P2
2022/03/19 00:00:08;;;;;;;;;;;9.30;99.90;9.70;100831.00;;;;340946;28;94751;-84
2022/03/19 00:00:21;;;;;;;;;;;9.30;99.90;9.70;100825.00;;;;341980;28;83347;-84
2022/03/19 00:00:34;;;;;;;;;;;9.30;99.90;9.70;100834.00;;;;341283;28;94233;-84
2022/03/19 00:00:46;;;;;;;;;;;9.30;99.90;9.70;100828.00;;;;342075;28;83334;-84
2022/03/19 00:00:58;;;;;;;;;;;9.20;99.90;9.70;100834.00;;;;341267;28;94057;-84
2022/03/19 00:01:13;;;;;;;;;;;9.20;99.90;9.80;100837.00;;;;339278;28;83435;-84
2022/03/19 00:01:25;;;;;;;;;;;9.20;99.90;9.80;100835.00;;;;338490;28;95442;-84
2022/03/19 00:01:39;;;;;;;;;;;9.20;99.90;9.80;100830.00;;;;339325;28;83259;-84
2022/03/19 00:01:51;;;;;;;;;;;9.20;99.90;9.90;100832.00;;;;342266;28;97475;-85
2022/03/19 00:02:03;;;;;;;;;;;9.20;99.90;9.80;100823.00;;;;341250;28;83558;-84
2022/03/19 00:02:18;;;;;;;;;;;9.20;99.90;9.80;100833.00;;;;338350;28;94347;-85
2022/03/19 00:02:29;;;;;;;;;;;9.20;99.90;9.80;100829.00;;;;337878;28;83911;-84
2022/03/19 00:02:41;;;;;;;;;;;9.20;99.90;9.80;100828.00;;;;338532;28;94746;-84
2022/03/19 00:02:53;;;;;;;;;;;9.20;99.90;9.70;100832.00;;;;340447;28;83341;-84
2022/03/19 00:03:05;;;;;;;;;;;9.20;99.90;9.70;100828.00;;;;339188;28;93709;-85
2022/03/19 00:03:18;;;;;;;;;;;9.30;99.90;9.80;100834.00;;;;342027;28;82509;-84
2022/03/19 00:03:30;;;;;;;;;;;9.20;99.90;9.80;100824.00;;;;339756;28;96948;-84
2022/03/19 00:03:42;;;;;;;;;;;9.20;99.90;9.80;100830.00;;;;340667;28;83917;-84
2022/03/19 00:03:54;;;;;;;;;;;9.30;99.90;9.90;100835.00;;;;339810;28;94537;-83
2022/03/19 00:04:06;;;;;;;;;;;9.20;99.90;9.80;100834.00;;;;339282;28;83446;-84
2022/03/19 00:04:18;;;;;;;;;;;9.20;99.90;9.80;100832.00;;;;338553;28;94338;-84
2022/03/19 00:04:29;;;;;;;;;;;9.20;99.90;9.80;100831.00;;;;339312;28;83560;-84
2022/03/19 00:04:41;;;;;;;;;;;9.20;99.90;9.70;100821.00;;;;338538;28;93565;-84
2022/03/19 00:04:53;;;;;;;;;;;9.20;99.90;9.70;100826.00;;;;339358;28;83445;-85
2022/03/19 00:05:06;;;;;;;;;;;9.20;99.90;9.80;100839.00;;;;335536;28;94166;-85
2022/03/19 00:05:18;;;;;;;;;;;9.20;99.90;9.90;100831.00;;;;337756;28;83441;-84
2022/03/19 00:05:30;;;;;;;;;;;9.30;99.90;9.90;100834.00;;;;337740;28;95541;-84
2022/03/19 00:05:42;;;;;;;;;;;9.20;99.90;9.90;100826.00;;;;339282;28;83356;-84
2022/03/19 00:05:54;;;;;;;;;;;9.20;99.90;9.90;100831.00;;;;341174;28;97113;-84
2022/03/19 00:06:06;;;;;;;;;;;9.30;99.90;9.90;100837.00;;;;342830;28;83526;-84
2022/03/19 00:06:18;;;;;;;;;;;9.30;99.90;9.90;100830.00;;;;341223;28;94499;-84
2022/03/19 00:06:30;;;;;;;;;;;9.30;99.90;9.90;100833.00;;;;340655;28;83455;-84
2022/03/19 00:06:42;;;;;;;;;;;9.30;99.90;9.90;100843.00;;;;338542;28;94271;-83
2022/03/19 00:06:54;;;;;;;;;;;9.30;99.90;10.00;100834.00;;;;337989;28;83394;-84
2022/03/19 00:07:05;;;;;;;;;;;9.30;99.90;9.90;100830.00;;;;338479;28;94725;-84
2022/03/19 00:07:17;;;;;;;;;;;9.30;99.90;9.80;100844.00;;;;339335;28;83502;-84
2022/03/19 00:07:29;;;;;;;;;;;9.30;99.90;9.80;100835.00;;;;338538;28;95444;-84
2022/03/19 00:07:41;;;;;;;;;;;9.30;99.90;9.90;100832.00;;;;337966;28;83366;-84
2022/03/19 00:07:52;;;;;;;;;;;9.30;99.90;9.90;100833.00;;;;337004;28;94427;-83
2022/03/19 00:08:04;;;;;;;;;;;9.30;99.90;9.80;100838.00;;;;337657;28;79861;-84
2022/03/19 00:08:16;;;;;;;;;;;9.30;99.90;9.80;100846.00;;;;337612;28;94184;-83
2022/03/19 00:08:28;;;;;;;;;;;9.30;99.90;9.90;100835.00;;;;337998;28;83376;-84
2022/03/19 00:08:40;;;;;;;;;;;9.30;99.90;9.90;100827.00;;;;338522;28;94461;-84
2022/03/19 00:08:53;;;;;;;;;;;9.30;99.90;9.90;100835.00;;;;339767;28;83371;-84
2022/03/19 00:09:05;;;;;;;;;;;9.30;99.90;9.90;100836.00;;;;338970;28;94237;-84
2022/03/19 00:09:17;;;;;;;;;;;9.30;99.90;9.90;100837.00;;;;337947;28;83469;-84
2022/03/19 00:09:29;;;;;;;;;;;9.30;99.90;9.80;100832.00;;;;337157;28;95525;-84
2022/03/19 00:09:42;;;;;;;;;;;9.30;99.90;9.80;100834.00;;;;338781;28;82447;-84
2022/03/19 00:09:53;;;;;;;;;;;9.30;99.90;9.90;100829.00;;;;339923;28;94468;-84
2022/03/19 00:10:08;;;;;;;;;;;9.30;99.90;9.90;100836.00;;;;340607;28;83366;-84
2022/03/19 00:10:22;;;;;;;;;;;9.30;99.90;9.90;100834.00;;;;339815;28;94172;-84
2022/03/19 00:10:33;;;;;;;;;;;9.30;99.90;10.00;100835.00;;;;340607;28;83340;-84
2022/03/19 00:10:45;;;;;;;;;;;9.40;99.90;10.00;100831.00;;;;339825;28;94522;-84
2022/03/19 00:10:57;;;;;;;;;;;9.30;99.90;9.90;100833.00;;;;339899;28;83391;-83
2022/03/19 00:11:09;;;;;;;;;;;9.30;99.90;9.90;100834.00;;;;339464;28;94155;-84
2022/03/19 00:11:22;;;;;;;;;;;9.30;99.90;9.90;100834.00;;;;340301;28;83569;-84
2022/03/19 00:11:34;;;;;;;;;;;9.40;99.90;9.70;100835.00;;;;339701;28;95641;-84
2022/03/19 00:11:45;;;;;;;;;;;9.30;99.90;9.70;100832.00;;;;340620;28;84058;-84
2022/03/19 00:11:57;;;;;;;;;;;9.30;99.90;9.70;100834.00;;;;339848;28;94170;-84
2022/03/19 00:12:14;;;;;;;;;;;9.30;99.90;9.70;100837.00;;;;340555;28;82415;-84
2022/03/19 00:12:26;;;;;;;;;;;9.30;99.90;9.60;100832.00;;;;338539;28;94181;-83
2022/03/19 00:12:41;;;;;;;;;;;9.30;99.90;9.70;100839.00;;;;339718;28;82482;-84
2022/03/19 00:12:53;;;;;;;;;;;9.30;99.90;9.70;100834.00;;;;338548;28;93450;-84
2022/03/19 00:13:05;;;;;;;;;;;9.20;99.90;9.70;100831.00;;;;339246;28;83426;-84
2022/03/19 00:13:17;;;;;;;;;;;9.20;99.90;9.70;100839.00;;;;338335;28;94490;-83
2022/03/19 00:13:31;;;;;;;;;;;9.20;99.90;9.80;100837.00;;;;340616;28;82325;-84
2022/03/19 00:13:42;;;;;;;;;;;9.20;99.90;9.80;100847.00;;;;339672;28;95245;-84
2022/03/19 00:13:54;;;;;;;;;;;9.20;99.90;9.80;100843.00;;;;340729;28;83337;-83
2022/03/19 00:14:06;;;;;;;;;;;9.20;99.90;9.80;100844.00;;;;339450;28;94247;-84
2022/03/19 00:14:18;;;;;;;;;;;9.20;99.90;9.80;100845.00;;;;341725;28;83377;-84
2022/03/19 00:14:30;;;;;;;;;;;9.30;99.90;9.80;100843.00;;;;341104;28;93634;-84
2022/03/19 00:14:42;;;;;;;;;;;9.20;99.90;9.80;100844.00;;;;340673;28;83300;-84
2022/03/19 00:14:53;;;;;;;;;;;9.20;99.90;9.70;100844.00;;;;339989;28;94193;-84
2022/03/19 00:15:07;;;;;;;;;;;9.20;99.90;9.70;100838.00;;;;343248;28;82509;-83
2022/03/19 00:15:19;;;;;;;;;;;9.30;99.90;9.70;100844.00;;;;341156;28;93769;-84
2022/03/19 00:15:31;;;;;;;;;;;9.20;99.90;9.80;100846.00;;;;340602;28;83496;-84
2022/03/19 00:15:42;;;;;;;;;;;9.20;99.90;9.80;100845.00;;;;338478;28;95075;-84
2022/03/19 00:15:54;;;;;;;;;;;9.20;99.90;9.70;100847.00;;;;340690;28;82436;-84
2022/03/19 00:16:06;;;;;;;;;;;9.20;99.90;9.80;100852.00;;;;341214;28;94570;-84
2022/03/19 00:16:18;;;;;;;;;;;9.20;99.90;9.70;100844.00;;;;341860;28;82511;-83
2022/03/19 00:16:30;;;;;;;;;;;9.20;99.90;9.70;100847.00;;;;339704;28;94227;-84
2022/03/19 00:16:42;;;;;;;;;;;9.20;99.90;9.80;100850.00;;;;341992;28;82436;-84
2022/03/19 00:16:54;;;;;;;;;;;9.20;99.90;9.80;100849.00;;;;341266;28;94220;-84
2022/03/19 00:17:06;;;;;;;;;;;9.20;99.90;9.80;100848.00;;;;341288;28;83738;-83
2022/03/19 00:17:18;;;;;;;;;;;9.20;99.90;9.60;100851.00;;;;339576;28;94305;-84
2022/03/19 00:17:29;;;;;;;;;;;9.20;99.90;9.50;100838.00;;;;340953;28;83380;-84
2022/03/19 00:17:41;;;;;;;;;;;9.20;99.90;9.60;100843.00;;;;339751;28;95552;-84
2022/03/19 00:17:54;;;;;;;;;;;9.20;99.90;9.70;100845.00;;;;340657;28;83507;-84
2022/03/19 00:18:06;;;;;;;;;;;9.20;99.90;9.70;100846.00;;;;338808;28;94650;-84
2022/03/19 00:18:18;;;;;;;;;;;9.20;99.90;9.70;100847.00;;;;337993;28;83337;-84
2022/03/19 00:18:29;;;;;;;;;;;9.20;99.90;9.80;100852.00;;;;338523;28;94294;-84
2022/03/19 00:18:41;;;;;;;;;;;9.20;99.90;9.80;100848.00;;;;339332;28;82380;-84
2022/03/19 00:18:53;;;;;;;;;;;9.20;99.90;9.80;100845.00;;;;338591;28;94221;-84
2022/03/19 00:19:06;;;;;;;;;;;9.20;99.90;9.80;100848.00;;;;339134;28;83517;-83
2022/03/19 00:19:17;;;;;;;;;;;9.20;99.90;9.60;100848.00;;;;338531;28;94446;-84
2022/03/19 00:19:30;;;;;;;;;;;9.20;99.90;9.60;100851.00;;;;340660;28;82432;-84
2022/03/19 00:19:41;;;;;;;;;;;9.20;99.90;9.70;100844.00;;;;339628;28;98698;-84
2022/03/19 00:19:53;;;;;;;;;;;9.20;99.90;9.70;100833.00;;;;339349;28;83339;-83
2022/03/19 00:20:05;;;;;;;;;;;9.20;99.90;9.80;100847.00;;;;338179;28;94599;-84
2022/03/19 00:20:17;;;;;;;;;;;9.20;99.90;9.80;100855.00;;;;338127;28;83408;-84
2022/03/19 00:20:30;;;;;;;;;;;9.20;99.90;9.70;100846.00;;;;338654;28;94448;-84
2022/03/19 00:20:42;;;;;;;;;;;9.20;99.90;9.70;100846.00;;;;339377;28;82402;-84
2022/03/19 00:20:54;;;;;;;;;;;9.20;99.90;9.60;100843.00;;;;338556;28;94210;-84
2022/03/19 00:21:06;;;;;;;;;;;9.20;99.90;9.70;100843.00;;;;340414;28;84119;-84
2022/03/19 00:21:18;;;;;;;;;;;9.20;99.90;9.60;100849.00;;;;339849;28;94489;-83
2022/03/19 00:21:30;;;;;;;;;;;9.20;99.90;9.60;100847.00;;;;341962;28;83506;-83
2022/03/19 00:21:41;;;;;;;;;;;9.20;99.90;9.70;100844.00;;;;341101;28;95255;-84
2022/03/19 00:21:53;;;;;;;;;;;9.20;99.90;9.60;100847.00;;;;340636;28;83285;-84
2022/03/19 00:22:05;;;;;;;;;;;9.10;99.90;9.70;100853.00;;;;339849;28;94632;-84
2022/03/19 00:22:17;;;;;;;;;;;9.20;99.90;9.70;100848.00;;;;340609;28;83308;-84
2022/03/19 00:22:29;;;;;;;;;;;9.20;99.90;9.70;100845.00;;;;339722;28;94099;-84
2022/03/19 00:22:41;;;;;;;;;;;9.20;99.90;9.70;100849.00;;;;341782;28;82502;-84
2022/03/19 00:22:52;;;;;;;;;;;9.20;99.90;9.60;100852.00;;;;341167;28;96741;-84
2022/03/19 00:23:07;;;;;;;;;;;9.10;99.90;9.70;100849.00;;;;340923;28;83451;-84
2022/03/19 00:23:18;;;;;;;;;;;9.10;99.90;9.70;100850.00;;;;341049;28;94481;-84
2022/03/19 00:23:30;;;;;;;;;;;9.10;99.90;9.70;100843.00;;;;340371;28;83428;-84
2022/03/19 00:23:42;;;;;;;;;;;9.20;99.90;9.60;100847.00;;;;339789;28;94458;-84
2022/03/19 00:23:54;;;;;;;;;;;9.10;99.90;9.70;100848.00;;;;340567;28;82428;-84
2022/03/19 00:24:06;;;;;;;;;;;9.10;99.90;9.60;100860.00;;;;338382;28;94736;-84
2022/03/19 00:24:17;;;;;;;;;;;9.10;99.90;9.60;100849.00;;;;339298;28;83496;-84
2022/03/19 00:24:29;;;;;;;;;;;9.10;99.90;9.60;100848.00;;;;339782;28;92623;-83
2022/03/19 00:24:41;;;;;;;;;;;9.10;99.90;9.50;100847.00;;;;340570;28;83386;-84
2022/03/19 00:24:53;;;;;;;;;;;9.10;99.90;9.60;100844.00;;;;341292;28;94105;-83
2022/03/19 00:25:05;;;;;;;;;;;9.10;99.90;9.60;100849.00;;;;340507;28;83420;-84
2022/03/19 00:25:17;;;;;;;;;;;9.10;99.90;9.60;100852.00;;;;339895;28;94232;-84
2022/03/19 00:25:29;;;;;;;;;;;9.10;99.90;9.50;100852.00;;;;340565;28;83414;-84
2022/03/19 00:25:41;;;;;;;;;;;9.10;99.90;9.50;100849.00;;;;341091;28;95351;-84
2022/03/19 00:25:52;;;;;;;;;;;9.10;99.90;9.50;100852.00;;;;342001;28;83475;-84
2022/03/19 00:26:04;;;;;;;;;;;9.10;99.90;9.50;100855.00;;;;341190;28;94190;-84
2022/03/19 00:26:16;;;;;;;;;;;9.10;99.90;9.50;100853.00;;;;340967;28;82511;-83
2022/03/19 00:26:28;;;;;;;;;;;9.10;99.90;9.60;100846.00;;;;339609;28;94163;-84
2022/03/19 00:26:40;;;;;;;;;;;9.10;99.90;9.60;100852.00;;;;339323;28;83334;-83
2022/03/19 00:26:51;;;;;;;;;;;9.10;99.90;9.60;100852.00;;;;338612;28;94640;-84
2022/03/19 00:27:03;;;;;;;;;;;9.10;99.90;9.60;100847.00;;;;340567;28;83371;-84
2022/03/19 00:27:15;;;;;;;;;;;9.10;99.90;9.70;100856.00;;;;338494;28;94649;-84
2022/03/19 00:27:27;;;;;;;;;;;9.10;99.90;9.70;100850.00;;;;340601;28;83325;-84
2022/03/19 00:27:40;;;;;;;;;;;9.10;99.90;9.70;100844.00;;;;339723;28;96289;-84
2022/03/19 00:27:52;;;;;;;;;;;9.10;99.90;9.60;100853.00;;;;339259;28;83447;-84
2022/03/19 00:28:04;;;;;;;;;;;9.10;99.90;9.60;100855.00;;;;339887;28;93879;-84
2022/03/19 00:28:18;;;;;;;;;;;9.10;99.90;9.60;100845.00;;;;341988;28;83342;-83
2022/03/19 00:28:30;;;;;;;;;;;9.10;99.90;9.60;100854.00;;;;339589;28;97408;-84
2022/03/19 00:28:42;;;;;;;;;;;9.10;99.90;9.70;100847.00;;;;340623;28;83330;-84
2022/03/19 00:28:54;;;;;;;;;;;9.10;99.90;9.70;100850.00;;;;339890;28;93806;-83
2022/03/19 00:29:05;;;;;;;;;;;9.10;99.90;9.80;100851.00;;;;339903;28;82485;-84
2022/03/19 00:29:17;;;;;;;;;;;9.10;99.90;9.70;100846.00;;;;340957;28;94522;-84
2022/03/19 00:29:29;;;;;;;;;;;9.10;99.90;9.60;100851.00;;;;341812;28;83395;-83
2022/03/19 00:29:41;;;;;;;;;;;9.10;99.90;9.50;100856.00;;;;341059;28;95574;-84
2022/03/19 00:29:52;;;;;;;;;;;9.10;99.90;9.50;100856.00;;;;341992;28;83348;-84
2022/03/19 00:30:04;;;;;;;;;;;9.10;99.90;9.50;100853.00;;;;340313;28;93439;-84
2022/03/19 00:30:16;;;;;;;;;;;9.10;99.90;9.40;100847.00;;;;340565;28;83206;-83
2022/03/19 00:30:28;;;;;;;;;;;9.00;99.90;9.50;100855.00;;;;339841;28;93059;-84
2022/03/19 00:30:39;;;;;;;;;;;9.10;99.90;9.50;100851.00;;;;340783;28;83226;-83
2022/03/19 00:30:51;;;;;;;;;;;9.10;99.90;9.50;100858.00;;;;339830;28;94210;-84
2022/03/19 00:31:03;;;;;;;;;;;9.10;99.90;9.50;100858.00;;;;340635;28;83434;-83
2022/03/19 00:31:15;;;;;;;;;;;9.00;99.90;9.50;100857.00;;;;341035;28;95983;-84
2022/03/19 00:31:28;;;;;;;;;;;9.00;99.90;9.50;100859.00;;;;341994;28;83120;-83
2022/03/19 00:31:40;;;;;;;;;;;9.00;99.90;9.50;100854.00;;;;342439;28;95107;-84
2022/03/19 00:31:52;;;;;;;;;;;9.00;99.90;9.50;100852.00;;;;341803;28;83489;-84
2022/03/19 00:32:04;;;;;;;;;;;9.00;99.90;9.50;100862.00;;;;341329;28;95841;-84
2022/03/19 00:32:16;;;;;;;;;;;9.00;99.90;9.40;100856.00;;;;339823;28;83523;-84
2022/03/19 00:32:28;;;;;;;;;;;9.00;99.90;9.50;100855.00;;;;339749;28;94873;-84
2022/03/19 00:32:39;;;;;;;;;;;9.00;99.90;9.50;100850.00;;;;339291;28;82573;-84
2022/03/19 00:32:51;;;;;;;;;;;9.00;99.90;9.50;100854.00;;;;338559;28;94126;-84
2022/03/19 00:33:03;;;;;;;;;;;9.00;99.90;9.50;100852.00;;;;337793;28;83457;-83
2022/03/19 00:33:15;;;;;;;;;;;9.00;99.90;9.50;100857.00;;;;336834;28;94271;-84
2022/03/19 00:33:26;;;;;;;;;;;9.00;99.90;9.50;100866.00;;;;339295;28;82546;-84
2022/03/19 00:33:38;;;;;;;;;;;9.00;99.90;9.40;100854.00;;;;338383;28;95172;-84
2022/03/19 00:33:50;;;;;;;;;;;9.00;99.90;9.50;100855.00;;;;339297;28;82473;-83
2022/03/19 00:34:02;;;;;;;;;;;9.00;99.90;9.50;100857.00;;;;338537;28;93738;-84
2022/03/19 00:34:14;;;;;;;;;;;9.00;99.90;9.40;100857.00;;;;340576;28;83398;-84
2022/03/19 00:34:26;;;;;;;;;;;9.00;99.90;9.50;100863.00;;;;339718;28;95415;-84
2022/03/19 00:34:38;;;;;;;;;;;9.00;99.90;9.50;100853.00;;;;340621;28;83407;-84
2022/03/19 00:34:49;;;;;;;;;;;9.00;99.90;9.50;100865.00;;;;339874;28;94218;-84
2022/03/19 00:35:02;;;;;;;;;;;9.00;99.90;9.60;100853.00;;;;338412;28;83929;-83
2022/03/19 00:35:16;;;;;;;;;;;9.00;99.90;9.50;100860.00;;;;337413;28;97552;-84
2022/03/19 00:35:28;;;;;;;;;;;9.00;99.90;9.40;100854.00;;;;339186;28;82620;-84
2022/03/19 00:35:40;;;;;;;;;;;9.00;99.90;9.40;100859.00;;;;335773;28;94355;-84
2022/03/19 00:35:52;;;;;;;;;;;9.00;99.90;9.50;100857.00;;;;336580;28;83380;-84
2022/03/19 00:36:04;;;;;;;;;;;9.00;99.90;9.50;100853.00;;;;336558;28;94158;-84
2022/03/19 00:36:16;;;;;;;;;;;9.00;99.90;9.50;100860.00;;;;337914;28;83414;-84
2022/03/19 00:36:28;;;;;;;;;;;9.00;99.90;9.50;100854.00;;;;336882;28;93119;-84
2022/03/19 00:36:39;;;;;;;;;;;9.00;99.90;9.50;100855.00;;;;339272;28;82617;-84
2022/03/19 00:36:51;;;;;;;;;;;9.00;99.90;9.60;100859.00;;;;338619;28;94645;-84
2022/03/19 00:37:03;;;;;;;;;;;9.00;99.90;9.50;100853.00;;;;340442;28;83436;-84
2022/03/19 00:37:15;;;;;;;;;;;9.00;99.90;9.50;100860.00;;;;340942;28;94391;-84
2022/03/19 00:37:26;;;;;;;;;;;9.00;99.90;9.50;100858.00;;;;341952;28;83414;-84
2022/03/19 00:37:43;;;;;;;;;;;9.00;99.90;9.40;100855.00;;;;341035;28;94395;-84
2022/03/19 00:37:55;;;;;;;;;;;9.00;99.90;9.50;100861.00;;;;342008;28;82495;-83
2022/03/19 00:38:06;;;;;;;;;;;9.00;99.90;9.50;100847.00;;;;338698;28;99876;-84
2022/03/19 00:38:18;;;;;;;;;;;9.00;99.90;9.50;100847.00;;;;343027;28;82469;-84
2022/03/19 00:38:30;;;;;;;;;;;9.00;99.90;9.60;100857.00;;;;341565;28;94320;-84
2022/03/19 00:38:41;;;;;;;;;;;9.00;99.90;9.60;100858.00;;;;343331;28;82518;-84
2022/03/19 00:38:54;;;;;;;;;;;9.00;99.90;9.50;100851.00;;;;342576;28;94118;-84
2022/03/19 00:39:06;;;;;;;;;;;9.00;99.90;9.50;100854.00;;;;339092;28;83393;-84
2022/03/19 00:39:17;;;;;;;;;;;9.00;99.90;9.50;100856.00;;;;338478;28;94409;-83
2022/03/19 00:39:29;;;;;;;;;;;9.00;99.90;9.50;100855.00;;;;339323;28;83409;-84
2022/03/19 00:39:41;;;;;;;;;;;9.00;99.90;9.60;100856.00;;;;338447;28;95382;-83
2022/03/19 00:39:52;;;;;;;;;;;9.00;99.90;9.60;100854.00;;;;339410;28;83413;-84
2022/03/19 00:40:05;;;;;;;;;;;9.00;99.90;9.50;100854.00;;;;338531;28;94630;-84
2022/03/19 00:40:18;;;;;;;;;;;9.00;99.90;9.50;100854.00;;;;340609;28;83264;-84
2022/03/19 00:40:30;;;;;;;;;;;9.00;99.90;9.50;100854.00;;;;339808;28;93881;-84
2022/03/19 00:40:43;;;;;;;;;;;9.00;99.90;9.50;100847.00;;;;339102;28;83502;-84
2022/03/19 00:40:55;;;;;;;;;;;9.00;99.90;9.50;100858.00;;;;339838;28;94516;-84
2022/03/19 00:41:07;;;;;;;;;;;9.00;99.90;9.50;100852.00;;;;341509;28;83413;-84
2022/03/19 00:41:19;;;;;;;;;;;9.00;99.90;9.50;100863.00;;;;340885;28;96997;-84
2022/03/19 00:41:31;;;;;;;;;;;9.00;99.90;9.50;100850.00;;;;342555;28;83374;-84
2022/03/19 00:41:42;;;;;;;;;;;9.00;99.90;9.50;100856.00;;;;342374;28;95140;-83
2022/03/19 00:41:54;;;;;;;;;;;9.00;99.90;9.50;100859.00;;;;342051;28;82411;-84
2022/03/19 00:42:07;;;;;;;;;;;9.00;99.90;9.50;100859.00;;;;342492;28;97078;-84
2022/03/19 00:42:19;;;;;;;;;;;9.00;99.90;9.60;100855.00;;;;343336;28;83323;-84
2022/03/19 00:42:31;;;;;;;;;;;9.00;99.90;9.60;100854.00;;;;340956;28;94082;-84
2022/03/19 00:42:43;;;;;;;;;;;9.00;99.90;9.50;100855.00;;;;341727;28;83326;-84
2022/03/19 00:42:55;;;;;;;;;;;9.00;99.90;9.50;100860.00;;;;341052;28;96147;-84
2022/03/19 00:43:07;;;;;;;;;;;9.00;99.90;9.50;100854.00;;;;340477;28;83456;-84
2022/03/19 00:43:21;;;;;;;;;;;9.00;99.90;9.50;100855.00;;;;338278;28;96305;-84
2022/03/19 00:43:34;;;;;;;;;;;9.00;99.90;9.50;100863.00;;;;340634;28;83395;-84
2022/03/19 00:43:46;;;;;;;;;;;9.00;99.90;9.50;100860.00;;;;339627;28;96481;-84
2022/03/19 00:43:58;;;;;;;;;;;9.00;99.90;9.50;100852.00;;;;341245;28;83487;-84
2022/03/19 00:44:09;;;;;;;;;;;8.90;99.90;9.50;100857.00;;;;340909;28;95800;-83
2022/03/19 00:44:21;;;;;;;;;;;9.00;99.90;9.50;100857.00;;;;340520;28;83354;-84
2022/03/19 00:44:33;;;;;;;;;;;9.00;99.90;9.50;100861.00;;;;339225;28;97006;-84
2022/03/19 00:44:45;;;;;;;;;;;9.00;99.90;9.40;100860.00;;;;340576;28;83831;-84
2022/03/19 00:44:56;;;;;;;;;;;9.00;99.90;9.40;100856.00;;;;339859;28;94236;-84
2022/03/19 00:45:09;;;;;;;;;;;9.00;99.90;9.50;100859.00;;;;341851;28;83512;-84
2022/03/19 00:45:21;;;;;;;;;;;8.90;99.90;9.50;100853.00;;;;341241;28;93083;-84
2022/03/19 00:45:32;;;;;;;;;;;9.00;99.90;9.50;100860.00;;;;340365;28;83551;-84
2022/03/19 00:45:44;;;;;;;;;;;9.00;99.90;9.50;100857.00;;;;338276;28;98564;-84
2022/03/19 00:45:56;;;;;;;;;;;9.00;99.90;9.50;100857.00;;;;341987;28;83307;-84
2022/03/19 00:46:07;;;;;;;;;;;9.00;99.90;9.50;100839.00;;;;338492;28;94500;-83
2022/03/19 00:46:20;;;;;;;;;;;9.00;99.90;9.40;100852.00;;;;339044;28;83427;-83
2022/03/19 00:46:32;;;;;;;;;;;9.00;99.90;9.40;100858.00;;;;335901;28;94559;-84
2022/03/19 00:46:44;;;;;;;;;;;8.90;99.90;9.30;100848.00;;;;340621;28;83093;-84
2022/03/19 00:46:56;;;;;;;;;;;8.90;99.90;9.30;100856.00;;;;339507;28;94311;-84
2022/03/19 00:47:08;;;;;;;;;;;8.90;99.90;9.30;100857.00;;;;341494;28;84735;-83
2022/03/19 00:47:19;;;;;;;;;;;8.90;99.90;9.20;100851.00;;;;338227;28;94951;-83
2022/03/19 00:47:31;;;;;;;;;;;8.90;99.90;9.20;100851.00;;;;338401;28;83739;-84
2022/03/19 00:47:43;;;;;;;;;;;8.90;99.90;9.20;100857.00;;;;338094;28;96723;-84
2022/03/19 00:47:55;;;;;;;;;;;8.90;99.90;9.20;100855.00;;;;339300;28;83397;-84
2022/03/19 00:48:07;;;;;;;;;;;8.90;99.90;9.30;100855.00;;;;338266;28;96117;-84
2022/03/19 00:48:19;;;;;;;;;;;8.90;99.90;9.30;100853.00;;;;340566;28;83371;-84
2022/03/19 00:48:31;;;;;;;;;;;8.90;99.90;9.30;100855.00;;;;339838;28;93800;-84
2022/03/19 00:48:42;;;;;;;;;;;8.90;99.90;9.20;100860.00;;;;340508;28;83578;-84
2022/03/19 00:48:54;;;;;;;;;;;8.90;99.90;9.20;100854.00;;;;339915;28;93843;-84
2022/03/19 00:49:06;;;;;;;;;;;8.90;99.90;9.20;100861.00;;;;337809;28;83508;-84
2022/03/19 00:49:18;;;;;;;;;;;8.80;99.90;9.30;100857.00;;;;338542;28;94132;-84
2022/03/19 00:49:30;;;;;;;;;;;8.80;99.90;9.30;100853.00;;;;339222;28;83395;-84
2022/03/19 00:49:41;;;;;;;;;;;8.80;99.90;9.30;100851.00;;;;338324;28;95540;-84
2022/03/19 00:49:53;;;;;;;;;;;8.80;99.90;9.30;100859.00;;;;340680;28;83381;-84
2022/03/19 00:50:06;;;;;;;;;;;8.80;99.90;9.30;100855.00;;;;339163;28;94331;-84
2022/03/19 00:50:18;;;;;;;;;;;8.80;99.90;9.30;100856.00;;;;337817;28;82450;-84
2022/03/19 00:50:30;;;;;;;;;;;8.80;99.90;9.30;100863.00;;;;338058;28;94363;-84
2022/03/19 00:50:41;;;;;;;;;;;8.80;99.90;9.30;100855.00;;;;339310;28;83412;-84
2022/03/19 00:50:55;;;;;;;;;;;8.80;99.90;9.30;100864.00;;;;341207;28;94194;-84
2022/03/19 00:51:06;;;;;;;;;;;8.80;99.90;9.30;100854.00;;;;340448;28;83476;-84
2022/03/19 00:51:18;;;;;;;;;;;8.80;99.90;9.40;100859.00;;;;341223;28;94201;-84
2022/03/19 00:51:32;;;;;;;;;;;8.80;99.90;9.20;100856.00;;;;339271;28;83492;-83
2022/03/19 00:51:44;;;;;;;;;;;8.80;99.90;9.10;100859.00;;;;338349;28;95570;-84
2022/03/19 00:51:56;;;;;;;;;;;8.80;99.90;9.10;100856.00;;;;339299;28;82455;-83
2022/03/19 00:52:08;;;;;;;;;;;8.80;99.90;9.20;100860.00;;;;338467;28;96899;-83
2022/03/19 00:52:20;;;;;;;;;;;8.80;99.90;9.20;100857.00;;;;337846;28;83376;-84
2022/03/19 00:52:32;;;;;;;;;;;8.80;99.90;9.20;100860.00;;;;338531;28;94263;-84
2022/03/19 00:52:43;;;;;;;;;;;8.80;99.90;9.30;100857.00;;;;340658;28;82487;-84
2022/03/19 00:52:55;;;;;;;;;;;8.80;99.90;9.30;100849.00;;;;342101;28;93101;-83
2022/03/19 00:53:07;;;;;;;;;;;8.80;99.90;9.30;100860.00;;;;341470;28;83566;-84
2022/03/19 00:53:19;;;;;;;;;;;8.80;99.90;9.20;100856.00;;;;339673;28;93781;-84
2022/03/19 00:53:35;;;;;;;;;;;8.80;99.90;9.00;100858.00;;;;341850;28;82404;-84
2022/03/19 00:53:46;;;;;;;;;;;8.80;99.90;8.90;100861.00;;;;339727;28;95172;-84
2022/03/19 00:53:58;;;;;;;;;;;8.70;99.90;8.90;100864.00;;;;340599;28;82446;-84
2022/03/19 00:54:11;;;;;;;;;;;8.70;99.90;9.10;100846.00;;;;341126;28;97669;-84
2022/03/19 00:54:23;;;;;;;;;;;8.70;99.90;9.10;100851.00;;;;340452;28;83540;-84
2022/03/19 00:54:34;;;;;;;;;;;8.70;99.90;9.20;100851.00;;;;341117;28;94052;-84
2022/03/19 00:54:46;;;;;;;;;;;8.70;99.90;9.20;100856.00;;;;340623;28;83405;-84
2022/03/19 00:54:58;;;;;;;;;;;8.70;99.90;9.20;100850.00;;;;338441;28;94734;-84
2022/03/19 00:55:10;;;;;;;;;;;8.70;99.90;9.20;100854.00;;;;341856;28;83414;-84
2022/03/19 00:55:22;;;;;;;;;;;8.70;99.90;9.20;100856.00;;;;341228;28;94200;-84
2022/03/19 00:55:33;;;;;;;;;;;8.70;99.90;9.20;100853.00;;;;341923;28;82456;-84
2022/03/19 00:55:45;;;;;;;;;;;8.70;99.90;9.20;100853.00;;;;341049;28;96188;-84
2022/03/19 00:55:57;;;;;;;;;;;8.70;99.90;9.20;100860.00;;;;339974;28;82453;-83
2022/03/19 00:56:09;;;;;;;;;;;8.70;99.90;9.20;100853.00;;;;337123;28;97486;-84
2022/03/19 00:56:20;;;;;;;;;;;8.70;99.90;9.30;100859.00;;;;337958;28;83349;-84
2022/03/19 00:56:32;;;;;;;;;;;8.70;99.90;9.20;100853.00;;;;337821;28;97164;-83
2022/03/19 00:56:46;;;;;;;;;;;8.70;99.90;9.30;100854.00;;;;340619;28;83381;-83
2022/03/19 00:56:58;;;;;;;;;;;8.70;99.90;9.40;100856.00;;;;339527;28;94233;-84
2022/03/19 00:57:10;;;;;;;;;;;8.70;99.90;9.30;100856.00;;;;339017;28;83489;-84
2022/03/19 00:57:21;;;;;;;;;;;8.70;99.90;9.20;100860.00;;;;339821;28;97199;-84
2022/03/19 00:57:44;;;;;;;;;;;8.70;99.90;9.10;100872.00;;;;341758;28;83519;-84
2022/03/19 00:57:55;;;;;;;;;;;8.70;99.90;9.20;100859.00;;;;341054;28;95364;-84
2022/03/19 00:58:07;;;;;;;;;;;8.70;99.90;9.20;100854.00;;;;341997;28;83337;-84
2022/03/19 00:58:19;;;;;;;;;;;8.70;99.90;9.30;100863.00;;;;341114;28;94419;-84
2022/03/19 00:58:31;;;;;;;;;;;8.70;99.90;9.20;100856.00;;;;343274;28;83503;-84
2022/03/19 00:58:42;;;;;;;;;;;8.70;99.90;9.10;100860.00;;;;339700;28;95752;-84
2022/03/19 00:58:55;;;;;;;;;;;8.70;99.90;9.10;100854.00;;;;340541;28;83400;-84
2022/03/19 00:59:06;;;;;;;;;;;8.70;99.90;9.20;100855.00;;;;338461;28;95919;-84
2022/03/19 00:59:18;;;;;;;;;;;8.70;99.90;9.20;100863.00;;;;340105;28;83405;-84
2022/03/19 00:59:30;;;;;;;;;;;8.70;99.90;9.10;100857.00;;;;338425;28;93833;-84
2022/03/19 00:59:42;;;;;;;;;;;8.70;99.90;9.10;100859.00;;;;339154;28;83476;-84
2022/03/19 00:59:54;;;;;;;;;;;8.70;99.90;9.10;100857.00;;;;338381;28;96938;-84
2022/03/19 01:00:06;;;;;;;;;;;8.70;99.90;9.10;100859.00;;;;338175;28;82551;-84
2022/03/19 01:00:24;;;;;;;;;;;8.70;99.90;9.00;100858.00;;;;338487;28;94389;-84
2022/03/19 01:00:36;;;;;;;;;;;8.60;99.90;9.10;100862.00;;;;339185;28;83421;-83
2022/03/19 01:00:47;;;;;;;;;;;8.70;99.90;9.20;100853.00;;;;337145;28;94120;-84